createdAt,value
2024-01-05T00:03:05.204Z,20.13
2024-01-05T00:05:32.378Z,24.33
2024-01-05T00:07:59.419Z,20.83
2024-01-05T00:10:26.362Z,20.92
2024-01-05T00:12:53.330Z,24.90
2024-01-05T00:15:21.338Z,21.63
2024-01-05T00:17:48.434Z,20.38
2024-01-05T00:20:15.654Z,29.45
2024-01-05T00:22:42.610Z,22.20
2024-01-05T00:25:09.755Z,18.02
2024-01-05T00:27:36.749Z,25.08
2024-01-05T00:30:05.939Z,25.08
2024-01-05T00:32:33.124Z,16.45
2024-01-05T00:35:00.067Z,24.50
2024-01-05T00:37:26.865Z,27.13
2024-01-05T00:39:53.772Z,22.42
2024-01-05T00:42:20.774Z,27.30
2024-01-05T00:44:47.891Z,22.25
2024-01-05T00:47:14.818Z,33.70
2024-01-05T00:49:41.915Z,23.23
2024-01-05T00:52:08.858Z,24.45
2024-01-05T00:54:35.869Z,29.52
2024-01-05T00:57:02.849Z,30.77
2024-01-05T00:59:29.832Z,28.77
2024-01-05T01:01:56.688Z,25.13
2024-01-05T01:04:24.099Z,27.15
2024-01-05T01:06:51.896Z,25.55
2024-01-05T01:09:18.913Z,24.80
2024-01-05T01:11:45.789Z,21.75
2024-01-05T01:14:12.637Z,29.38
2024-01-05T01:16:39.738Z,30.52
2024-01-05T01:19:06.849Z,22.75
2024-01-05T01:21:34.117Z,27.42
2024-01-05T01:24:01.209Z,25.52
2024-01-05T01:26:28.130Z,30.42
2024-01-05T01:28:55.034Z,23.23
2024-01-05T01:31:21.920Z,28.15
2024-01-05T01:33:48.875Z,22.40
2024-01-05T01:36:15.979Z,30.05
2024-01-05T01:38:42.868Z,27.85
2024-01-05T01:41:09.714Z,28.88
2024-01-05T01:43:36.686Z,21.25
2024-01-05T01:46:03.682Z,29.17
2024-01-05T01:48:31.801Z,23.13
2024-01-05T01:51:00.215Z,27.88
2024-01-05T01:53:28.989Z,29.02
2024-01-05T01:55:56.912Z,24.70
2024-01-05T01:58:24.834Z,29.52
2024-01-05T02:00:52.666Z,28.63
2024-01-05T02:03:20.387Z,23.42
2024-01-05T02:05:48.845Z,29.48
2024-01-05T02:08:16.344Z,30.80
2024-01-05T02:10:43.338Z,32.22
2024-01-05T02:13:10.597Z,29.60
2024-01-05T02:15:37.454Z,27.67
2024-01-05T02:18:14.899Z,31.85
2024-01-05T02:20:46.177Z,23.70
2024-01-05T02:23:27.873Z,28.80
2024-01-05T02:25:59.029Z,24.23
2024-01-05T02:28:26.354Z,27.25
2024-01-05T02:30:57.391Z,28.10
2024-01-05T02:33:25.474Z,27.23
2024-01-05T02:35:52.745Z,25.00
2024-01-05T02:38:19.745Z,29.50
2024-01-05T02:40:46.622Z,33.33
2024-01-05T02:43:13.541Z,32.20
2024-01-05T02:45:40.609Z,31.52
2024-01-05T02:48:08.458Z,26.92
2024-01-05T02:50:35.454Z,29.55
2024-01-05T02:53:02.500Z,34.60
2024-01-05T02:55:29.389Z,30.45
2024-01-05T02:57:56.348Z,28.02
2024-01-05T03:00:23.466Z,30.98
2024-01-05T03:02:50.452Z,32.00
2024-01-05T03:05:17.402Z,34.45
2024-01-05T03:07:44.746Z,31.35
2024-01-05T03:10:11.992Z,33.90
2024-01-05T03:12:38.887Z,36.65
2024-01-05T03:15:06.425Z,40.60
2024-01-05T03:17:33.586Z,33.40
2024-01-05T03:20:00.690Z,32.08
2024-01-05T03:22:31.261Z,27.05
2024-01-05T03:24:59.045Z,25.58
2024-01-05T03:27:25.960Z,30.77
2024-01-05T03:29:53.065Z,28.83
2024-01-05T03:32:20.041Z,27.60
2024-01-05T03:34:46.984Z,32.78
2024-01-05T03:37:13.852Z,32.90
2024-01-05T03:39:40.741Z,32.45
2024-01-05T03:42:07.772Z,31.52
2024-01-05T03:44:34.638Z,31.17
2024-01-05T03:47:01.627Z,33.38
2024-01-05T03:49:29.164Z,34.45
2024-01-05T03:51:56.114Z,32.53
2024-01-05T03:54:23.073Z,28.10
2024-01-05T03:56:49.979Z,30.40
2024-01-05T03:59:16.857Z,36.13
2024-01-05T04:01:48.431Z,34.88
2024-01-05T04:04:15.425Z,30.80
2024-01-05T04:06:43.514Z,33.42
2024-01-05T04:09:13.571Z,31.73
2024-01-05T04:11:40.961Z,34.05
2024-01-05T04:14:08.668Z,41.50
2024-01-05T04:16:36.163Z,34.97
2024-01-05T04:19:03.737Z,28.48
2024-01-05T04:21:31.480Z,34.47
2024-01-05T04:23:58.719Z,30.58
2024-01-05T04:26:26.440Z,34.20
2024-01-05T04:28:53.699Z,32.30
2024-01-05T04:31:20.650Z,37.50
2024-01-05T04:33:47.844Z,30.70
2024-01-05T04:36:18.060Z,33.03
2024-01-05T04:38:45.364Z,35.03
2024-01-05T04:41:15.149Z,32.95
2024-01-05T04:43:42.068Z,34.05
2024-01-05T04:46:09.405Z,39.35
2024-01-05T04:48:36.794Z,42.13
2024-01-05T04:51:04.799Z,37.60
2024-01-05T04:53:31.752Z,37.85
2024-01-05T04:55:58.755Z,39.55
2024-01-05T04:58:25.751Z,34.17
2024-01-05T05:00:52.945Z,37.58
2024-01-05T05:03:19.993Z,36.05
2024-01-05T05:05:47.346Z,36.08
2024-01-05T05:08:16.071Z,38.22
2024-01-05T05:10:43.308Z,35.10
2024-01-05T05:13:10.872Z,36.70
2024-01-05T05:15:39.143Z,39.70
2024-01-05T05:18:06.390Z,36.95
2024-01-05T05:20:34.108Z,31.65
2024-01-05T05:23:01.122Z,35.28
2024-01-05T05:25:28.075Z,29.70
2024-01-05T05:27:55.226Z,32.47
2024-01-05T05:30:22.495Z,33.80
2024-01-05T05:32:49.597Z,29.90
2024-01-05T05:35:16.696Z,38.72
2024-01-05T05:37:43.698Z,33.72
2024-01-05T05:40:12.095Z,39.75
2024-01-05T05:42:39.124Z,36.85
2024-01-05T05:45:06.485Z,39.00
2024-01-05T05:47:33.524Z,33.97
2024-01-05T05:50:00.482Z,40.40
2024-01-05T05:52:29.725Z,42.92
2024-01-05T05:54:57.632Z,44.60
2024-01-05T05:57:24.549Z,40.72
2024-01-05T05:59:52.742Z,37.10
2024-01-05T06:02:19.931Z,47.75
2024-01-05T06:04:46.981Z,47.92
2024-01-05T06:07:13.915Z,52.60
2024-01-05T06:09:40.870Z,45.90
2024-01-05T06:12:08.351Z,45.20
2024-01-05T06:14:35.185Z,52.17
2024-01-05T06:17:02.073Z,51.95
2024-01-05T06:19:29.301Z,51.55
2024-01-05T06:21:58.556Z,52.53
2024-01-05T06:24:25.806Z,46.75
2024-01-05T06:26:52.947Z,54.92
2024-01-05T06:29:19.901Z,59.88
2024-01-05T06:31:47.187Z,55.35
2024-01-05T06:34:14.413Z,57.20
2024-01-05T06:36:41.561Z,59.30
2024-01-05T06:39:08.797Z,63.88
2024-01-05T06:41:35.823Z,61.47
2024-01-05T06:44:03.618Z,63.65
2024-01-05T06:46:31.825Z,61.67
2024-01-05T06:48:58.939Z,66.50
2024-01-05T06:51:31.097Z,59.78
2024-01-05T06:54:01.045Z,66.20
2024-01-05T06:56:32.986Z,71.28
2024-01-05T06:59:05.389Z,68.13
2024-01-05T07:01:32.546Z,65.63
2024-01-05T07:03:59.565Z,66.35
2024-01-05T07:06:26.561Z,60.65
2024-01-05T07:08:53.550Z,68.50
2024-01-05T07:11:24.609Z,63.05
2024-01-05T07:13:52.097Z,69.68
2024-01-05T07:16:20.321Z,65.03
2024-01-05T07:18:48.158Z,71.63
2024-01-05T07:21:15.892Z,68.22
2024-01-05T07:23:44.155Z,64.80
2024-01-05T07:26:11.230Z,74.30
2024-01-05T07:28:39.063Z,70.53
2024-01-05T07:31:06.599Z,66.45
2024-01-05T07:33:34.097Z,62.25
2024-01-05T07:36:07.394Z,72.50
2024-01-05T07:41:03.206Z,72.70
2024-01-05T07:43:31.353Z,76.00
2024-01-05T07:45:58.296Z,77.28
2024-01-05T07:48:25.471Z,72.82
2024-01-05T07:50:52.552Z,74.03
2024-01-05T07:53:21.697Z,71.05
2024-01-05T07:55:48.687Z,70.13
2024-01-05T07:58:15.725Z,74.65
2024-01-05T08:00:42.739Z,76.60
2024-01-05T08:03:11.406Z,73.93
2024-01-05T08:05:39.238Z,72.95
2024-01-05T08:08:06.438Z,70.05
2024-01-05T08:10:33.455Z,74.35
2024-01-05T08:13:02.432Z,81.55
2024-01-05T08:15:29.342Z,76.43
2024-01-05T08:17:56.384Z,70.20
2024-01-05T08:20:23.531Z,76.50
2024-01-05T08:22:50.483Z,78.32
2024-01-05T08:25:18.798Z,87.03
2024-01-05T08:27:47.016Z,69.70
2024-01-05T08:30:14.383Z,66.68
2024-01-05T08:32:44.693Z,79.70
2024-01-05T08:35:11.695Z,77.10
2024-01-05T08:37:39.700Z,73.18
2024-01-05T08:40:08.750Z,74.95
2024-01-05T08:42:35.886Z,72.70
2024-01-05T08:45:02.892Z,69.90
2024-01-05T08:47:31.164Z,71.80
2024-01-05T08:49:58.160Z,64.40
2024-01-05T08:52:25.191Z,73.00
2024-01-05T08:54:55.159Z,77.53
2024-01-05T08:57:22.378Z,70.43
2024-01-05T08:59:49.345Z,67.07
2024-01-05T09:02:16.333Z,70.38
2024-01-05T09:04:43.305Z,70.20
2024-01-05T09:07:10.363Z,68.88
2024-01-05T09:09:37.269Z,68.20
2024-01-05T09:12:07.516Z,68.53
2024-01-05T09:14:34.481Z,74.95
2024-01-05T09:17:01.986Z,67.30
2024-01-05T09:19:29.203Z,64.47
2024-01-05T09:21:56.413Z,76.03
2024-01-05T09:24:23.324Z,78.50
2024-01-05T09:26:50.257Z,71.55
2024-01-05T09:29:17.375Z,70.18
2024-01-05T09:31:48.994Z,60.50
2024-01-05T09:34:16.163Z,64.53
2024-01-05T09:36:43.128Z,67.80
2024-01-05T09:39:12.899Z,62.10
2024-01-05T09:41:47.379Z,66.72
2024-01-05T09:44:14.592Z,71.00
2024-01-05T09:46:42.828Z,62.97
2024-01-05T09:49:10.630Z,65.55
2024-01-05T09:51:38.331Z,69.00
2024-01-05T09:54:05.782Z,79.35
2024-01-05T09:56:33.738Z,71.05
2024-01-05T09:59:01.492Z,61.70
2024-01-05T10:01:34.550Z,66.53
2024-01-05T10:04:04.695Z,68.28
2024-01-05T10:06:32.160Z,63.78
2024-01-05T10:09:00.698Z,57.33
2024-01-05T10:11:35.198Z,59.35
2024-01-05T10:14:06.557Z,63.40
2024-01-05T10:16:42.900Z,50.72
2024-01-05T10:19:18.083Z,52.63
2024-01-05T10:21:49.689Z,57.47
2024-01-05T10:24:24.570Z,49.40
2024-01-05T10:27:13.790Z,45.72
2024-01-05T10:29:44.405Z,40.53
2024-01-05T10:32:12.974Z,35.47
2024-01-05T10:34:48.090Z,37.83
2024-01-05T10:37:20.509Z,15.07
2024-01-05T10:39:55.356Z,16.13
2024-01-05T10:42:29.333Z,14.20
2024-01-05T10:44:58.673Z,12.73
2024-01-05T10:47:30.588Z,10.25
2024-01-05T10:49:58.752Z,10.68
2024-01-05T10:52:29.288Z,11.05
2024-01-05T10:54:56.434Z,10.15
2024-01-05T10:57:25.188Z,18.30
2024-01-05T10:59:55.599Z,26.80
2024-01-05T11:02:40.634Z,28.25
2024-01-05T11:05:16.613Z,31.90
2024-01-05T11:07:44.134Z,41.72
2024-01-05T11:10:35.432Z,36.50
2024-01-05T11:13:43.119Z,39.60
2024-01-05T11:16:16.299Z,38.58
2024-01-05T11:18:57.172Z,36.20
2024-01-05T11:21:37.244Z,38.10
2024-01-05T11:24:04.777Z,46.00
2024-01-05T11:26:40.379Z,31.40
2024-01-05T11:29:13.524Z,15.70
2024-01-05T11:31:46.560Z,11.23
2024-01-05T11:34:37.732Z,6.80
2024-01-05T11:37:06.141Z,7.38
2024-01-05T11:39:49.745Z,30.38
2024-01-05T11:42:26.262Z,31.27
2024-01-05T11:44:53.772Z,54.47
2024-01-05T11:47:42.662Z,20.38
2024-01-05T11:50:29.116Z,8.65
2024-01-05T11:53:12.710Z,34.05
2024-01-05T11:55:46.265Z,8.80
2024-01-05T11:58:18.859Z,6.10
2024-01-05T12:00:48.386Z,6.57
2024-01-05T12:03:17.135Z,6.70
2024-01-05T12:05:47.141Z,3.72
2024-01-05T12:08:16.005Z,3.30
2024-01-05T12:10:43.220Z,4.88
2024-01-05T12:13:10.182Z,2.75
2024-01-05T12:15:44.209Z,4.07
2024-01-05T12:18:27.495Z,4.63
2024-01-05T12:20:59.891Z,2.35
2024-01-05T12:23:27.829Z,10.90
2024-01-05T12:26:05.746Z,3.83
2024-01-05T12:28:38.038Z,6.60
2024-01-05T12:31:07.061Z,3.60
2024-01-05T12:33:36.858Z,3.83
2024-01-05T12:36:07.208Z,9.10
2024-01-05T12:38:36.615Z,9.77
2024-01-05T12:41:17.417Z,7.25
2024-01-05T12:43:48.586Z,4.82
2024-01-05T12:46:16.472Z,5.45
2024-01-05T12:48:43.699Z,7.45
2024-01-05T12:51:13.189Z,2.58
2024-01-05T12:53:40.046Z,3.05
2024-01-05T12:56:18.784Z,4.57
2024-01-05T12:58:49.493Z,2.88
2024-01-05T13:01:21.533Z,1.77
2024-01-05T13:03:53.613Z,1.90
2024-01-05T13:06:22.783Z,1.23
2024-01-05T13:08:50.177Z,2.28
2024-01-05T13:11:21.886Z,2.67
2024-01-05T13:13:53.434Z,8.43
2024-01-05T13:16:20.845Z,20.17
2024-01-05T13:18:48.269Z,7.68
2024-01-05T13:21:15.609Z,6.80
2024-01-05T13:23:44.136Z,2.90
2024-01-05T13:26:11.341Z,7.40
2024-01-05T13:28:38.575Z,3.38
2024-01-05T13:31:06.343Z,4.68
2024-01-05T13:33:34.208Z,3.90
2024-01-05T13:36:01.390Z,3.92
2024-01-05T13:38:28.824Z,8.65
2024-01-05T13:40:55.726Z,6.05
2024-01-05T13:43:24.002Z,3.53
2024-01-05T13:45:52.912Z,3.53
2024-01-05T13:48:20.127Z,4.38
2024-01-05T13:50:47.166Z,4.75
2024-01-05T13:53:16.421Z,4.47
2024-01-05T13:55:43.330Z,2.63
2024-01-05T13:58:10.335Z,4.97
2024-01-05T14:00:37.446Z,4.47
2024-01-05T14:03:05.619Z,1.25
2024-01-05T14:05:32.830Z,6.28
2024-01-05T14:08:00.550Z,3.15
2024-01-05T14:10:27.567Z,2.33
2024-01-05T14:12:56.904Z,4.70
2024-01-05T14:15:25.298Z,3.00
2024-01-05T14:17:52.247Z,3.30
2024-01-05T14:20:19.488Z,3.25
2024-01-05T14:22:46.382Z,9.02
2024-01-05T14:25:13.993Z,2.90
2024-01-05T14:27:41.701Z,7.70
2024-01-05T14:30:09.908Z,6.35
2024-01-05T14:32:37.083Z,8.35
2024-01-05T14:35:06.797Z,7.20
2024-01-05T14:37:34.352Z,5.82
2024-01-05T14:40:01.351Z,8.25
2024-01-05T14:42:28.429Z,8.30
2024-01-05T14:44:55.545Z,9.57
2024-01-05T14:47:22.736Z,7.55
2024-01-05T14:49:51.234Z,4.53
2024-01-05T14:52:18.310Z,4.78
2024-01-05T14:54:45.389Z,6.95
2024-01-05T14:57:17.932Z,8.30
2024-01-05T14:59:44.825Z,5.70
2024-01-05T15:02:11.712Z,7.63
2024-01-05T15:04:38.661Z,5.82
2024-01-05T15:07:05.600Z,5.32
2024-01-05T15:09:32.566Z,7.93
2024-01-05T15:12:00.586Z,9.60
2024-01-05T15:14:28.758Z,10.38
2024-01-05T15:16:55.715Z,8.27
2024-01-05T15:19:22.776Z,11.63
2024-01-05T15:21:49.732Z,6.90
2024-01-05T15:24:16.827Z,10.70
2024-01-05T15:26:45.267Z,8.73
2024-01-05T15:29:15.978Z,10.45
2024-01-05T15:31:43.150Z,10.80
2024-01-05T15:34:10.257Z,10.07
2024-01-05T15:36:37.450Z,9.52
2024-01-05T15:39:07.492Z,7.15
2024-01-05T15:41:35.283Z,6.95
2024-01-05T15:44:02.371Z,10.50
2024-01-05T15:46:29.369Z,7.07
2024-01-05T15:48:56.897Z,7.85
2024-01-05T15:51:26.968Z,12.95
2024-01-05T15:53:57.500Z,9.57
2024-01-05T15:56:28.392Z,13.10
2024-01-05T15:58:56.103Z,11.05
2024-01-05T16:01:23.111Z,9.73
2024-01-05T16:03:50.470Z,8.95
2024-01-05T16:06:17.477Z,11.80
2024-01-05T16:08:44.473Z,14.77
2024-01-05T16:11:11.403Z,11.13
2024-01-05T16:13:38.342Z,12.93
2024-01-05T16:16:21.346Z,10.65
2024-01-05T16:18:50.330Z,14.20
2024-01-05T16:21:28.171Z,12.98
2024-01-05T16:23:56.541Z,10.93
2024-01-05T16:26:24.713Z,13.98
2024-01-05T16:28:52.318Z,12.18
2024-01-05T16:31:21.265Z,17.35
2024-01-05T16:33:49.062Z,13.40
2024-01-05T16:36:17.467Z,13.43
2024-01-05T16:38:45.750Z,13.75
2024-01-05T16:41:14.526Z,11.48
2024-01-05T16:43:41.843Z,17.55
2024-01-05T16:46:09.213Z,13.57
2024-01-05T16:48:36.538Z,14.23
2024-01-05T16:51:03.771Z,17.98
2024-01-05T16:53:30.858Z,14.23
2024-01-05T16:55:58.286Z,19.40
2024-01-05T16:58:25.513Z,18.40
2024-01-05T17:00:52.654Z,14.48
2024-01-05T17:03:19.823Z,13.38
2024-01-05T17:05:48.547Z,48.05
2024-01-05T17:08:15.825Z,24.40
2024-01-05T17:10:42.825Z,20.27
2024-01-05T17:13:09.802Z,21.35
2024-01-05T17:15:36.844Z,24.70
2024-01-05T17:18:04.246Z,19.92
2024-01-05T17:20:31.791Z,24.95
2024-01-05T17:22:59.797Z,30.20
2024-01-05T17:25:28.034Z,37.28
2024-01-05T17:27:54.954Z,57.90
2024-01-05T17:30:22.052Z,77.53
2024-01-05T17:32:50.586Z,50.70
2024-01-05T17:35:17.605Z,41.45
2024-01-05T17:37:44.703Z,45.17
2024-01-05T17:40:11.948Z,28.25
2024-01-05T17:42:39.487Z,32.70
2024-01-05T17:45:09.946Z,28.65
2024-01-05T17:47:36.899Z,35.03
2024-01-05T17:50:03.906Z,39.00
2024-01-05T17:52:30.903Z,33.78
2024-01-05T17:54:57.788Z,30.67
2024-01-05T17:57:25.865Z,40.47
2024-01-05T17:59:53.315Z,48.08
2024-01-05T18:02:20.448Z,59.35
2024-01-05T18:04:50.008Z,35.78
2024-01-05T18:07:18.071Z,41.13
2024-01-05T18:09:45.498Z,38.38
2024-01-05T18:12:12.443Z,39.90
2024-01-05T18:14:39.701Z,47.75
2024-01-05T18:17:06.739Z,46.13
2024-01-05T18:19:34.140Z,53.83
2024-01-05T18:22:01.532Z,34.80
2024-01-05T18:24:28.993Z,36.47
2024-01-05T18:26:55.960Z,50.78
2024-01-05T18:29:28.780Z,38.08
2024-01-05T18:32:00.389Z,27.02
2024-01-05T18:34:49.969Z,32.75
2024-01-05T18:37:17.746Z,25.70
2024-01-05T18:39:47.722Z,22.00
2024-01-05T18:42:14.910Z,18.08
2024-01-05T18:44:43.021Z,15.10
2024-01-05T18:47:10.083Z,19.67
2024-01-05T18:49:37.112Z,26.83
2024-01-05T18:52:04.243Z,27.23
2024-01-05T18:54:31.289Z,25.75
2024-01-05T18:57:01.221Z,32.35
2024-01-05T18:59:28.233Z,39.50
2024-01-05T19:01:55.614Z,31.13
2024-01-05T19:04:22.896Z,34.45
2024-01-05T19:06:50.028Z,43.50
2024-01-05T19:09:18.333Z,31.92
2024-01-05T19:11:47.367Z,44.05
2024-01-05T19:14:17.542Z,32.55
2024-01-05T19:16:44.870Z,35.83
2024-01-05T19:19:15.748Z,35.45
2024-01-05T19:21:53.108Z,32.33
2024-01-05T19:24:24.369Z,39.63
2024-01-05T19:26:52.295Z,32.30
2024-01-05T19:29:19.372Z,37.45
2024-01-05T19:31:46.593Z,41.80
2024-01-05T19:34:13.754Z,30.42
2024-01-05T19:36:45.514Z,30.67
2024-01-05T19:39:13.611Z,33.42
2024-01-05T19:41:45.552Z,31.70
2024-01-05T19:44:15.564Z,36.25
2024-01-05T19:46:42.584Z,38.08
2024-01-05T19:49:09.706Z,36.47
2024-01-05T19:51:44.800Z,33.47
2024-01-05T19:54:12.794Z,38.30
2024-01-05T19:56:39.726Z,45.97
2024-01-05T19:59:06.676Z,30.73
2024-01-05T20:01:33.785Z,33.42
2024-01-05T20:04:00.817Z,33.78
2024-01-05T20:06:33.525Z,30.23
2024-01-05T20:09:00.549Z,32.13
2024-01-05T20:11:27.443Z,35.00
2024-01-05T20:13:54.330Z,31.48
2024-01-05T20:16:21.183Z,37.00
2024-01-05T20:18:49.423Z,35.38
2024-01-05T20:21:16.687Z,31.52
2024-01-05T20:23:43.726Z,39.42
2024-01-05T20:26:21.127Z,31.52
2024-01-05T20:28:52.626Z,32.08
2024-01-05T20:31:20.381Z,35.78
2024-01-05T20:33:47.938Z,33.25
2024-01-05T20:36:17.291Z,29.77
2024-01-05T20:38:47.665Z,31.40
2024-01-05T20:41:14.734Z,28.80
2024-01-05T20:43:41.602Z,31.90
2024-01-05T20:46:08.954Z,34.55
2024-01-05T20:48:37.050Z,31.15
2024-01-05T20:51:04.240Z,32.38
2024-01-05T20:53:31.660Z,33.05
2024-01-05T20:55:58.555Z,25.98
2024-01-05T20:58:25.916Z,28.17
2024-01-05T21:00:53.134Z,31.25
2024-01-05T21:03:20.669Z,31.58
2024-01-05T21:05:50.441Z,34.15
2024-01-05T21:08:17.348Z,25.50
2024-01-05T21:10:44.330Z,24.95
2024-01-05T21:13:11.220Z,21.20
2024-01-05T21:15:38.226Z,23.35
2024-01-05T21:18:05.740Z,20.88
2024-01-05T21:20:33.235Z,20.45
2024-01-05T21:23:01.687Z,22.38
2024-01-05T21:25:30.642Z,19.90
2024-01-05T21:27:57.780Z,23.50
2024-01-05T21:30:25.124Z,23.83
2024-01-05T21:32:53.003Z,22.55
2024-01-05T21:35:20.081Z,22.70
2024-01-05T21:37:46.926Z,26.30
2024-01-05T21:40:14.042Z,28.13
2024-01-05T21:42:40.989Z,22.13
2024-01-05T21:45:08.466Z,23.63
2024-01-05T21:47:35.764Z,20.67
2024-01-05T21:50:02.755Z,25.08
2024-01-05T21:52:29.736Z,23.98
2024-01-05T21:54:56.666Z,30.40
2024-01-05T21:57:23.662Z,24.50
2024-01-05T21:59:51.255Z,27.15
2024-01-05T22:02:18.172Z,24.48
2024-01-05T22:04:45.060Z,25.65
2024-01-05T22:07:12.140Z,21.90
2024-01-05T22:09:40.082Z,23.90
2024-01-05T22:12:08.675Z,28.27
2024-01-05T22:14:35.752Z,29.00
2024-01-05T22:17:03.763Z,32.53
2024-01-05T22:19:31.098Z,28.73
2024-01-05T22:21:58.160Z,28.52
2024-01-05T22:24:27.225Z,43.25
2024-01-05T22:26:54.106Z,29.65
2024-01-05T22:29:20.979Z,24.85
2024-01-05T22:31:48.131Z,20.48
2024-01-05T22:34:15.421Z,19.83
2024-01-05T22:36:42.508Z,20.23
2024-01-05T22:39:12.743Z,17.27
2024-01-05T22:41:39.703Z,24.65
2024-01-05T22:44:06.667Z,26.80
2024-01-05T22:46:33.815Z,21.50
2024-01-05T22:49:00.943Z,23.33
2024-01-05T22:51:32.019Z,20.13
2024-01-05T22:53:59.164Z,21.85
2024-01-05T22:56:26.073Z,22.52
2024-01-05T22:58:52.999Z,19.98
2024-01-05T23:01:24.119Z,22.67
2024-01-05T23:03:52.808Z,20.42
2024-01-05T23:06:20.582Z,22.25
2024-01-05T23:08:47.689Z,21.73
2024-01-05T23:11:15.011Z,18.45
2024-01-05T23:13:42.017Z,17.70
2024-01-05T23:16:09.167Z,16.15
2024-01-05T23:18:36.429Z,19.88
2024-01-05T23:21:03.788Z,15.18
2024-01-05T23:23:30.994Z,15.68
2024-01-05T23:25:57.872Z,15.88
2024-01-05T23:28:26.092Z,15.75
2024-01-05T23:30:53.319Z,14.32
2024-01-05T23:33:20.694Z,15.40
2024-01-05T23:35:50.881Z,12.68
2024-01-05T23:38:18.027Z,12.80
2024-01-05T23:40:45.022Z,14.13
2024-01-05T23:43:12.021Z,15.23
2024-01-05T23:45:39.042Z,13.60
2024-01-05T23:48:06.340Z,15.93
2024-01-05T23:50:33.392Z,11.40
2024-01-05T23:53:03.083Z,13.75
2024-01-05T23:55:31.647Z,14.90
2024-01-05T23:57:58.643Z,15.38
